Time;durP1;ratioP1;P1;durP2;ratioP2;P2;SDS_P1;SDS_P2;PMS_P1;PMS_P2;Temp;Humidity;BMP_temperature;BMP_pressure;BME280_temperature;BME280_humidity;BME280_pressure;Samples;Min_cycle;Max_cycle;Signal;HPM_P1;HPM_P2
2021/05/01 00:01:05;;;;;;;14.50;6.65;;;10.20;95.20;;;;;;4967681;28;20028;-74
2021/05/01 00:03:31;;;;;;;15.82;6.53;;;10.20;95.20;;;;;;4937061;29;20114;-75
2021/05/01 00:05:57;;;;;;;13.85;6.20;;;10.20;95.20;;;;;;4935761;29;20079;-75
2021/05/01 00:08:27;;;;;;;12.25;6.00;;;10.20;95.20;;;;;;4967310;28;20047;-75
2021/05/01 00:10:53;;;;;;;14.80;6.03;;;10.20;95.20;;;;;;4950284;28;20048;-75
2021/05/01 00:13:18;;;;;;;14.93;5.97;;;10.20;95.20;;;;;;4936328;29;20099;-74
2021/05/01 00:15:44;;;;;;;16.60;6.75;;;10.20;95.20;;;;;;4950568;28;20059;-75
2021/05/01 00:18:10;;;;;;;12.15;6.88;;;10.20;95.10;;;;;;4936154;29;20031;-75
2021/05/01 00:20:36;;;;;;;12.45;6.22;;;10.10;95.00;;;;;;4935869;29;20024;-75
2021/05/01 00:23:01;;;;;;;15.82;6.85;;;10.10;95.00;;;;;;4935046;29;20016;-75
2021/05/01 00:25:27;;;;;;;24.80;7.97;;;10.10;95.00;;;;;;4967096;28;20127;-74
2021/05/01 00:27:53;;;;;;;13.35;6.80;;;10.10;94.90;;;;;;4935861;29;20042;-74
2021/05/01 00:30:19;;;;;;;15.73;7.40;;;10.00;94.90;;;;;;4966959;28;20024;-74
2021/05/01 00:32:45;;;;;;;14.52;7.10;;;10.10;94.90;;;;;;4950432;29;20031;-75
2021/05/01 00:35:11;;;;;;;13.20;6.68;;;10.00;94.90;;;;;;4950819;29;20028;-75
2021/05/01 00:37:37;;;;;;;18.70;7.47;;;10.00;95.00;;;;;;4936153;29;20376;-74
2021/05/01 00:40:05;;;;;;;11.60;5.88;;;10.00;95.00;;;;;;4936169;29;20028;-75
2021/05/01 00:42:30;;;;;;;15.35;7.22;;;10.10;95.00;;;;;;4936262;29;20034;-75
2021/05/01 00:44:56;;;;;;;17.02;7.45;;;10.10;95.00;;;;;;4935402;29;20107;-74
2021/05/01 00:47:22;;;;;;;21.73;7.80;;;10.00;95.10;;;;;;4935960;29;20028;-75
2021/05/01 00:49:47;;;;;;;18.10;7.40;;;10.00;95.10;;;;;;4935077;29;20020;-75
2021/05/01 00:52:13;;;;;;;17.30;8.07;;;10.00;95.20;;;;;;4935955;29;20035;-74
2021/05/01 00:54:39;;;;;;;18.30;8.45;;;10.00;95.10;;;;;;4935405;29;20025;-76
2021/05/01 00:57:05;;;;;;;20.58;8.60;;;10.00;95.10;;;;;;4935528;29;20040;-74
2021/05/01 00:59:30;;;;;;;17.65;8.07;;;9.90;95.10;;;;;;4935487;29;20028;-75
2021/05/01 01:01:58;;;;;;;17.42;9.13;;;10.00;95.20;;;;;;4935364;29;20383;-74
2021/05/01 01:04:23;;;;;;;17.80;8.23;;;10.00;95.10;;;;;;4950568;28;20392;-75
2021/05/01 01:06:49;;;;;;;18.42;8.85;;;10.00;95.00;;;;;;4935210;29;20039;-74
2021/05/01 01:09:15;;;;;;;17.42;8.02;;;10.00;95.00;;;;;;4935795;29;20111;-74
2021/05/01 01:11:42;;;;;;;21.08;9.35;;;10.00;95.00;;;;;;4935090;29;20484;-74
2021/05/01 01:14:08;;;;;;;26.33;9.68;;;10.00;95.00;;;;;;4950046;28;20119;-75
2021/05/01 01:16:35;;;;;;;21.48;8.93;;;10.00;95.00;;;;;;4950037;28;20131;-75
2021/05/01 01:19:01;;;;;;;16.58;7.72;;;9.90;95.00;;;;;;4934934;29;20042;-74
2021/05/01 01:21:27;;;;;;;19.85;9.77;;;9.90;95.10;;;;;;4935321;29;20031;-74
2021/05/01 01:23:54;;;;;;;17.10;8.00;;;9.90;95.10;;;;;;4965479;28;20123;-75
2021/05/01 01:26:20;;;;;;;18.67;9.63;;;9.80;95.10;;;;;;4935269;29;20110;-74
2021/05/01 01:28:47;;;;;;;18.35;9.35;;;9.80;95.10;;;;;;4965387;28;20042;-74
2021/05/01 01:31:13;;;;;;;17.58;7.70;;;9.70;95.40;;;;;;4935056;29;20032;-74
2021/05/01 01:33:40;;;;;;;17.50;8.68;;;9.70;95.30;;;;;;4934404;29;20110;-75
2021/05/01 01:36:07;;;;;;;17.35;9.40;;;9.70;95.20;;;;;;4970201;28;20050;-74
2021/05/01 01:38:33;;;;;;;20.90;8.32;;;9.70;95.30;;;;;;4954229;28;20051;-74
2021/05/01 01:40:58;;;;;;;19.25;8.50;;;9.70;95.20;;;;;;4952244;29;20070;-76
2021/05/01 01:43:25;;;;;;;20.40;10.15;;;9.70;95.20;;;;;;4952977;29;20101;-75
2021/05/01 01:45:52;;;;;;;17.42;8.52;;;9.70;95.20;;;;;;4953502;28;20031;-74
2021/05/01 01:48:18;;;;;;;20.00;8.48;;;9.60;95.20;;;;;;4954082;28;20054;-74
2021/05/01 01:50:44;;;;;;;17.90;7.72;;;9.60;95.10;;;;;;4952200;29;20027;-75
2021/05/01 01:53:10;;;;;;;16.20;8.25;;;9.60;95.20;;;;;;4952743;29;20341;-74
2021/05/01 01:55:35;;;;;;;18.35;8.90;;;9.60;95.00;;;;;;4952595;29;20436;-73
2021/05/01 01:58:01;;;;;;;16.95;7.97;;;9.60;95.10;;;;;;4953279;28;20032;-74
2021/05/01 02:00:29;;;;;;;15.55;7.65;;;9.50;95.10;;;;;;4952696;29;20371;-75
2021/05/01 02:02:55;;;;;;;16.80;8.05;;;9.50;95.10;;;;;;4952973;28;20023;-74
2021/05/01 02:05:22;;;;;;;19.75;8.07;;;9.50;95.10;;;;;;4953996;28;20086;-75
2021/05/01 02:07:48;;;;;;;18.35;8.27;;;9.50;95.10;;;;;;4951981;29;20424;-74
2021/05/01 02:10:15;;;;;;;17.92;7.50;;;9.50;95.10;;;;;;4952297;28;20047;-74
2021/05/01 02:12:41;;;;;;;14.00;6.80;;;9.50;95.10;;;;;;4954013;28;20024;-75
2021/05/01 02:15:16;;;;;;;13.10;6.30;;;9.50;95.20;;;;;;4953146;28;20102;-75
2021/05/01 02:17:47;;;;;;;14.07;5.68;;;9.50;95.10;;;;;;4952404;29;20023;-74
2021/05/01 02:20:15;;;;;;;16.10;6.22;;;9.50;95.10;;;;;;4953583;28;20024;-74
2021/05/01 02:22:41;;;;;;;14.45;6.57;;;9.50;95.10;;;;;;4953785;28;20134;-74
2021/05/01 02:25:09;;;;;;;15.50;6.28;;;9.50;95.20;;;;;;4952848;28;20456;-75
2021/05/01 02:27:35;;;;;;;11.43;6.30;;;9.50;95.20;;;;;;4953622;28;20118;-75
2021/05/01 02:30:05;;;;;;;14.85;7.55;;;9.40;95.20;;;;;;4952757;28;20066;-75
2021/05/01 02:32:30;;;;;;;13.43;7.43;;;9.40;95.20;;;;;;4951988;29;20487;-75
2021/05/01 02:34:56;;;;;;;13.85;5.38;;;9.40;95.30;;;;;;4953170;28;20098;-74
2021/05/01 02:37:21;;;;;;;13.07;6.78;;;9.40;95.30;;;;;;4953228;28;20404;-75
2021/05/01 02:39:47;;;;;;;17.05;6.28;;;9.40;95.30;;;;;;4953299;28;20027;-75
2021/05/01 02:42:13;;;;;;;13.35;5.60;;;9.40;95.40;;;;;;4953516;28;20023;-75
2021/05/01 02:44:38;;;;;;;15.45;6.32;;;9.50;95.40;;;;;;4955317;28;20082;-75
2021/05/01 02:47:04;;;;;;;13.90;6.60;;;9.50;95.40;;;;;;4956688;28;20456;-75
2021/05/01 02:49:30;;;;;;;11.18;5.43;;;9.50;95.50;;;;;;4955566;29;20027;-75
2021/05/01 02:51:55;;;;;;;15.82;6.78;;;9.50;95.50;;;;;;4956524;28;20376;-74
2021/05/01 02:54:21;;;;;;;10.48;5.45;;;9.40;95.40;;;;;;4957046;28;20114;-75
2021/05/01 02:56:47;;;;;;;13.75;5.88;;;9.40;95.50;;;;;;4957074;28;20035;-74
2021/05/01 02:59:13;;;;;;;17.27;6.28;;;9.30;95.40;;;;;;4956967;28;20375;-75
2021/05/01 03:01:38;;;;;;;12.73;5.90;;;9.20;95.40;;;;;;4955620;29;20030;-75
2021/05/01 03:04:04;;;;;;;10.27;4.85;;;9.20;95.50;;;;;;4956208;28;20124;-74
2021/05/01 03:06:30;;;;;;;9.25;5.80;;;9.10;95.50;;;;;;4955523;28;20071;-76
2021/05/01 03:08:56;;;;;;;12.55;5.47;;;9.20;95.50;;;;;;4956250;28;20027;-75
2021/05/01 03:11:22;;;;;;;11.05;5.65;;;9.10;95.50;;;;;;4955108;29;20090;-74
2021/05/01 03:13:47;;;;;;;13.23;5.95;;;9.10;95.60;;;;;;4956989;28;20027;-74
2021/05/01 03:16:13;;;;;;;11.45;5.70;;;9.20;95.60;;;;;;4956022;28;20041;-74
2021/05/01 03:18:38;;;;;;;14.57;6.45;;;9.20;95.50;;;;;;4956395;28;20066;-74
2021/05/01 03:21:04;;;;;;;11.90;5.40;;;9.10;95.30;;;;;;4955842;28;20027;-75
2021/05/01 03:23:30;;;;;;;12.38;5.57;;;9.10;95.50;;;;;;4956579;28;20024;-74
2021/05/01 03:25:55;;;;;;;10.75;5.30;;;9.10;95.50;;;;;;4955958;28;20591;-74
2021/05/01 03:28:22;;;;;;;12.43;6.05;;;9.00;95.60;;;;;;4956387;28;20484;-76
2021/05/01 03:30:48;;;;;;;13.27;6.35;;;9.00;95.70;;;;;;4956548;28;20110;-75
2021/05/01 03:33:15;;;;;;;13.73;5.90;;;9.00;95.70;;;;;;4955828;28;20162;-75
2021/05/01 03:35:41;;;;;;;12.10;5.63;;;9.00;95.70;;;;;;4956374;28;20046;-73
2021/05/01 03:38:07;;;;;;;12.77;5.88;;;9.00;95.70;;;;;;4955856;28;20407;-75
2021/05/01 03:40:33;;;;;;;12.30;6.13;;;9.00;95.70;;;;;;4955858;28;20028;-75
2021/05/01 03:42:58;;;;;;;13.93;6.90;;;8.90;95.70;;;;;;4955521;28;20034;-74
2021/05/01 03:45:24;;;;;;;12.18;5.15;;;8.90;95.70;;;;;;4956521;28;20038;-75
2021/05/01 03:47:50;;;;;;;13.20;6.30;;;8.80;95.70;;;;;;4954926;29;20026;-75
2021/05/01 03:50:15;;;;;;;13.98;7.10;;;8.80;95.60;;;;;;4955351;28;20102;-76
2021/05/01 03:52:41;;;;;;;18.02;7.68;;;8.80;95.60;;;;;;4956158;28;20019;-75
2021/05/01 03:55:08;;;;;;;14.63;7.00;;;8.70;95.70;;;;;;4954779;28;20483;-75
2021/05/01 03:57:33;;;;;;;14.20;6.55;;;8.70;95.80;;;;;;4956024;28;20394;-74
2021/05/01 03:59:59;;;;;;;18.08;5.78;;;8.70;95.80;;;;;;4955456;28;20031;-76
2021/05/01 04:02:25;;;;;;;12.57;6.03;;;8.70;95.80;;;;;;4955782;28;20082;-74
2021/05/01 04:04:50;;;;;;;14.52;5.43;;;8.70;95.90;;;;;;4954333;29;20130;-74
2021/05/01 04:07:16;;;;;;;12.57;6.43;;;8.70;95.90;;;;;;4955188;28;20067;-74
2021/05/01 04:09:41;;;;;;;19.65;8.32;;;8.70;95.80;;;;;;4955636;28;20031;-75
2021/05/01 04:12:07;;;;;;;15.50;6.65;;;8.60;95.70;;;;;;4954992;28;20471;-74
2021/05/01 04:14:33;;;;;;;16.40;6.90;;;8.60;95.70;;;;;;4954465;28;20127;-74
2021/05/01 04:16:59;;;;;;;13.90;7.20;;;8.60;95.70;;;;;;4953674;29;20460;-75
2021/05/01 04:19:24;;;;;;;12.63;6.43;;;8.50;95.80;;;;;;4954453;29;20479;-74
2021/05/01 04:21:50;;;;;;;14.18;6.57;;;8.50;95.70;;;;;;4954278;29;20183;-74
2021/05/01 04:24:15;;;;;;;14.82;6.65;;;8.50;95.60;;;;;;4954881;28;20464;-74
2021/05/01 04:26:41;;;;;;;19.98;7.57;;;8.50;95.60;;;;;;4955277;28;20424;-75
2021/05/01 04:29:07;;;;;;;14.48;7.35;;;8.40;95.60;;;;;;4954767;28;20480;-74
2021/05/01 04:31:33;;;;;;;14.77;6.30;;;8.40;95.60;;;;;;4955084;28;20059;-74
2021/05/01 04:33:58;;;;;;;13.48;6.38;;;8.30;95.60;;;;;;4953298;28;20130;-74
2021/05/01 04:36:24;;;;;;;15.63;7.20;;;8.30;95.60;;;;;;4954048;29;20031;-74
2021/05/01 04:38:50;;;;;;;13.05;6.70;;;8.30;95.60;;;;;;4955281;28;20496;-74
2021/05/01 04:41:15;;;;;;;17.25;6.70;;;8.30;95.60;;;;;;4954539;28;20035;-74
2021/05/01 04:43:43;;;;;;;11.95;6.53;;;8.30;95.60;;;;;;4954828;28;20098;-75
2021/05/01 04:46:14;;;;;;;12.70;6.47;;;8.30;95.60;;;;;;4952899;29;20074;-73
2021/05/01 04:48:40;;;;;;;23.83;7.82;;;8.40;95.50;;;;;;4954875;28;20027;-74
2021/05/01 04:51:06;;;;;;;13.07;6.30;;;8.30;95.30;;;;;;4954371;28;20038;-74
2021/05/01 04:53:31;;;;;;;12.77;6.13;;;8.20;95.30;;;;;;4955048;28;20420;-74
2021/05/01 04:55:57;;;;;;;13.52;6.85;;;8.20;95.30;;;;;;4954338;28;20028;-74
2021/05/01 04:58:23;;;;;;;13.93;5.97;;;8.20;95.30;;;;;;4953780;29;20024;-75
2021/05/01 05:00:48;;;;;;;9.85;4.97;;;8.20;95.30;;;;;;4953729;29;20027;-75
2021/05/01 05:03:14;;;;;;;10.25;4.80;;;8.20;95.40;;;;;;4952815;29;20139;-75
2021/05/01 05:05:39;;;;;;;15.13;6.55;;;8.20;95.20;;;;;;4954669;28;20035;-74
2021/05/01 05:08:05;;;;;;;14.55;6.38;;;8.20;95.30;;;;;;4953986;28;20030;-74
2021/05/01 05:10:31;;;;;;;15.25;6.28;;;8.20;95.40;;;;;;4954857;28;20047;-73
2021/05/01 05:12:57;;;;;;;12.55;5.78;;;8.20;95.30;;;;;;4954494;28;20031;-74
2021/05/01 05:15:22;;;;;;;12.98;6.25;;;8.20;95.40;;;;;;4952539;28;20118;-74
2021/05/01 05:17:48;;;;;;;16.98;6.93;;;8.20;95.30;;;;;;4954581;28;20551;-74
2021/05/01 05:20:14;;;;;;;12.55;6.13;;;8.20;95.30;;;;;;4952526;29;20023;-73
2021/05/01 05:22:39;;;;;;;17.17;7.63;;;8.20;95.20;;;;;;4954494;28;20024;-74
2021/05/01 05:25:06;;;;;;;13.40;6.13;;;8.20;95.30;;;;;;4954006;28;20078;-74
2021/05/01 05:27:31;;;;;;;13.23;6.93;;;8.20;95.30;;;;;;4953328;29;20027;-74
2021/05/01 05:29:57;;;;;;;11.77;6.03;;;8.20;95.30;;;;;;4952748;28;20035;-75
2021/05/01 05:32:24;;;;;;;11.82;5.60;;;8.20;95.30;;;;;;4953611;28;20066;-74
2021/05/01 05:34:51;;;;;;;15.73;7.00;;;8.30;95.40;;;;;;4954467;28;20031;-75
2021/05/01 05:37:17;;;;;;;14.35;7.50;;;8.30;95.30;;;;;;4953609;28;20031;-74
2021/05/01 05:39:45;;;;;;;13.80;6.88;;;8.20;95.20;;;;;;4954475;28;20027;-74
2021/05/01 05:42:11;;;;;;;13.55;6.40;;;8.30;95.30;;;;;;4953580;28;20464;-74
2021/05/01 05:44:43;;;;;;;19.45;8.48;;;8.30;95.30;;;;;;4952870;29;20019;-74
2021/05/01 05:47:10;;;;;;;11.98;5.72;;;8.30;95.30;;;;;;4952639;29;20069;-75
2021/05/01 05:49:36;;;;;;;20.35;7.32;;;8.30;95.30;;;;;;4952912;28;20464;-74
2021/05/01 05:52:02;;;;;;;14.40;6.88;;;8.30;95.20;;;;;;4952278;29;20027;-75
2021/05/01 05:54:27;;;;;;;14.13;6.22;;;8.30;95.20;;;;;;4953962;28;20098;-75
2021/05/01 05:56:53;;;;;;;15.82;7.20;;;8.40;95.20;;;;;;4953750;28;20035;-75
2021/05/01 05:59:19;;;;;;;17.17;7.40;;;8.40;95.10;;;;;;4952078;28;20100;-74
2021/05/01 06:01:46;;;;;;;16.17;7.90;;;8.40;95.20;;;;;;4952731;29;20031;-74
2021/05/01 06:04:20;;;;;;;14.43;7.00;;;8.40;95.10;;;;;;4953389;28;20023;-75
2021/05/01 06:06:58;;;;;;;17.83;7.72;;;8.50;95.30;;;;;;4954284;28;20031;-74
2021/05/01 06:09:26;;;;;;;13.20;6.50;;;8.40;95.00;;;;;;4951849;29;20027;-73
2021/05/01 06:11:53;;;;;;;18.33;7.22;;;8.50;95.10;;;;;;4953672;28;20493;-76
2021/05/01 06:14:20;;;;;;;15.50;7.30;;;8.50;95.10;;;;;;4953085;28;20082;-74
2021/05/01 06:16:46;;;;;;;16.25;7.43;;;8.50;95.00;;;;;;4953749;28;20063;-74
2021/05/01 06:19:12;;;;;;;15.00;7.10;;;8.50;95.00;;;;;;4955602;28;20102;-74
2021/05/01 06:21:40;;;;;;;18.75;8.18;;;8.50;95.00;;;;;;4957513;28;20027;-75
2021/05/01 06:24:07;;;;;;;13.65;7.03;;;8.50;95.00;;;;;;4957186;28;20110;-74
2021/05/01 06:26:37;;;;;;;18.77;8.52;;;8.50;95.00;;;;;;4957775;28;20114;-74
2021/05/01 06:29:07;;;;;;;19.63;8.43;;;8.50;94.90;;;;;;4957688;28;20023;-75
2021/05/01 06:31:37;;;;;;;18.02;7.82;;;8.50;94.90;;;;;;4957883;28;20074;-75
2021/05/01 06:34:04;;;;;;;19.00;8.52;;;8.60;94.90;;;;;;4957577;28;20035;-75
2021/05/01 06:36:32;;;;;;;19.15;8.23;;;8.60;94.90;;;;;;4957448;28;20043;-75
2021/05/01 06:39:05;;;;;;;16.20;7.90;;;8.60;94.80;;;;;;4955949;29;20495;-74
2021/05/01 06:41:53;;;;;;;18.65;8.65;;;8.60;94.70;;;;;;4957403;28;20027;-75
2021/05/01 06:44:42;;;;;;;16.15;8.15;;;8.60;94.60;;;;;;4956622;28;20028;-74
2021/05/01 06:47:12;;;;;;;19.10;8.20;;;8.60;94.60;;;;;;4916620;28;20163;-75
2021/05/01 06:50:10;;;;;;;16.10;7.55;;;8.60;94.60;;;;;;4955874;29;20030;-75
2021/05/01 06:52:41;;;;;;;21.13;7.90;;;8.70;94.40;;;;;;4957099;28;20027;-74
2021/05/01 06:55:09;;;;;;;17.60;7.78;;;8.60;94.40;;;;;;4955107;29;20067;-74
2021/05/01 06:57:38;;;;;;;18.45;7.88;;;8.70;94.30;;;;;;4956746;28;20391;-74
2021/05/01 07:00:08;;;;;;;12.63;6.32;;;8.70;94.30;;;;;;4955667;28;20042;-74
2021/05/01 07:02:40;;;;;;;16.67;7.60;;;8.70;94.20;;;;;;4956849;28;20031;-74
2021/05/01 07:05:11;;;;;;;12.13;6.28;;;8.80;94.20;;;;;;4956570;28;20020;-75
2021/05/01 07:07:37;;;;;;;14.18;6.85;;;8.80;94.10;;;;;;4955645;28;20027;-74
2021/05/01 07:10:08;;;;;;;14.02;6.97;;;8.90;94.10;;;;;;4956718;28;20047;-74
2021/05/01 07:12:34;;;;;;;14.13;6.20;;;9.00;94.00;;;;;;4956790;28;20503;-74
2021/05/01 07:15:09;;;;;;;12.80;5.97;;;9.00;93.90;;;;;;4956684;28;20034;-75
2021/05/01 07:17:36;;;;;;;18.17;7.63;;;9.10;93.80;;;;;;4956783;28;20400;-75
2021/05/01 07:20:03;;;;;;;12.35;6.45;;;9.10;93.80;;;;;;4956381;28;20079;-74
2021/05/01 07:22:29;;;;;;;13.15;5.93;;;9.20;93.80;;;;;;4956277;28;20034;-74
2021/05/01 07:24:55;;;;;;;15.32;6.00;;;9.30;93.80;;;;;;4956811;28;20031;-73
2021/05/01 07:27:52;;;;;;;12.50;4.90;;;9.30;93.70;;;;;;4954764;28;20150;-75
2021/05/01 07:30:19;;;;;;;11.50;6.18;;;9.50;93.50;;;;;;4961425;28;20492;-74
2021/05/01 07:32:49;;;;;;;9.77;4.40;;;9.70;93.30;;;;;;4956197;28;20027;-74
2021/05/01 07:35:17;;;;;;;9.10;4.70;;;9.80;93.10;;;;;;4954302;29;20450;-75
2021/05/01 07:37:45;;;;;;;8.57;4.30;;;9.90;92.90;;;;;;4956600;28;20464;-74
2021/05/01 07:40:12;;;;;;;8.07;3.97;;;9.90;92.90;;;;;;4955730;28;20015;-74
2021/05/01 07:42:45;;;;;;;11.27;3.38;;;9.90;92.90;;;;;;4956366;28;20031;-74
2021/05/01 07:45:13;;;;;;;8.80;4.47;;;10.10;92.80;;;;;;4955335;28;20313;-74
2021/05/01 07:47:40;;;;;;;8.32;4.18;;;10.20;92.50;;;;;;4954848;28;20106;-74
2021/05/01 07:50:06;;;;;;;6.22;3.67;;;10.20;92.20;;;;;;4954827;29;20024;-75
2021/05/01 07:52:35;;;;;;;7.45;3.95;;;10.20;92.20;;;;;;4954102;28;20020;-75
2021/05/01 07:55:01;;;;;;;5.70;3.13;;;10.10;92.00;;;;;;4954817;29;20416;-74
2021/05/01 07:57:27;;;;;;;7.82;2.97;;;10.20;92.10;;;;;;4955068;28;20090;-74
2021/05/01 07:59:52;;;;;;;10.60;4.18;;;10.20;92.00;;;;;;4956094;28;20483;-77
2021/05/01 08:02:19;;;;;;;6.80;3.72;;;10.20;91.90;;;;;;4954782;28;20449;-76
2021/05/01 08:04:44;;;;;;;7.30;4.07;;;10.20;91.90;;;;;;4955531;28;20066;-74
2021/05/01 08:07:11;;;;;;;7.85;3.90;;;10.20;91.90;;;;;;4954451;29;20111;-75
2021/05/01 08:09:36;;;;;;;5.53;2.92;;;10.30;91.80;;;;;;4955442;28;20103;-73
2021/05/01 08:12:03;;;;;;;6.93;3.80;;;10.40;91.60;;;;;;4956168;28;20038;-75
2021/05/01 08:14:28;;;;;;;11.70;3.55;;;10.50;91.40;;;;;;4955147;28;20027;-74
2021/05/01 08:16:54;;;;;;;8.88;4.55;;;10.50;91.30;;;;;;4955044;28;20085;-74
2021/05/01 08:19:19;;;;;;;8.98;3.13;;;10.60;91.00;;;;;;4954883;28;20032;-74
2021/05/01 08:21:45;;;;;;;6.03;3.35;;;10.50;90.70;;;;;;4955537;28;20541;-74
2021/05/01 08:24:11;;;;;;;5.65;2.92;;;10.40;90.60;;;;;;4955451;28;20030;-74
2021/05/01 08:26:37;;;;;;;5.22;2.60;;;10.40;90.20;;;;;;4955163;28;20162;-75
2021/05/01 08:29:03;;;;;;;5.00;2.25;;;10.30;89.70;;;;;;4955242;28;20395;-74
2021/05/01 08:31:29;;;;;;;3.95;2.67;;;10.30;90.00;;;;;;4953513;28;20352;-74
2021/05/01 08:33:55;;;;;;;7.38;3.47;;;10.20;90.00;;;;;;4955457;28;20523;-75
2021/05/01 08:36:21;;;;;;;9.13;3.75;;;10.30;90.10;;;;;;4954388;28;20035;-75
2021/05/01 08:38:47;;;;;;;8.73;4.95;;;10.30;90.00;;;;;;4955238;28;20357;-75
2021/05/01 08:41:13;;;;;;;6.13;3.28;;;10.40;89.50;;;;;;4954895;28;20146;-73
2021/05/01 08:43:39;;;;;;;6.35;3.58;;;10.40;88.80;;;;;;4955148;28;20387;-75
2021/05/01 08:46:14;;;;;;;5.60;2.90;;;10.50;86.80;;;;;;4955097;28;20047;-75
2021/05/01 08:48:49;;;;;;;7.50;3.80;;;10.60;87.20;;;;;;4953905;29;20024;-75
2021/05/01 08:51:16;;;;;;;7.57;3.33;;;10.70;87.40;;;;;;4954504;28;20494;-75
2021/05/01 08:53:44;;;;;;;7.43;3.10;;;10.70;87.10;;;;;;4954951;28;20023;-75
2021/05/01 08:56:10;;;;;;;6.63;2.80;;;10.70;86.30;;;;;;4953381;29;20082;-75
2021/05/01 08:58:35;;;;;;;5.32;3.42;;;10.80;85.50;;;;;;4954258;28;20035;-75
2021/05/01 09:01:05;;;;;;;5.65;2.30;;;10.90;84.80;;;;;;4955174;28;20050;-75
2021/05/01 09:03:30;;;;;;;7.15;2.92;;;11.00;84.90;;;;;;4954160;28;20106;-74
2021/05/01 09:05:58;;;;;;;8.43;3.15;;;11.10;84.90;;;;;;4953493;29;20110;-74
2021/05/01 09:08:25;;;;;;;6.10;2.78;;;11.20;83.80;;;;;;4952808;29;20539;-74
2021/05/01 09:10:52;;;;;;;5.93;2.78;;;11.30;83.50;;;;;;4954399;28;20079;-75
2021/05/01 09:13:24;;;;;;;6.35;3.30;;;11.30;83.20;;;;;;4952648;29;20387;-74
2021/05/01 09:15:56;;;;;;;;;;;11.30;82.80;;;;;;4955075;28;20070;-75
2021/05/01 09:18:22;;;;;;;4.47;2.70;;;11.30;82.90;;;;;;4952683;29;20248;-75
2021/05/01 09:20:48;;;;;;;4.65;2.50;;;11.30;82.10;;;;;;4954558;28;20023;-75
2021/05/01 09:23:13;;;;;;;4.45;2.72;;;11.40;82.20;;;;;;4953330;29;20078;-75
2021/05/01 09:25:59;;;;;;;5.80;3.22;;;11.50;81.80;;;;;;4953635;28;20063;-75
2021/05/01 09:28:37;;;;;;;4.85;2.42;;;11.70;81.10;;;;;;4952641;29;20376;-75
2021/05/01 09:31:15;;;;;;;7.53;3.30;;;11.70;80.60;;;;;;4953156;29;20023;-75
2021/05/01 09:33:51;;;;;;;5.65;2.95;;;11.70;80.30;;;;;;4952431;29;20114;-75
2021/05/01 09:36:22;;;;;;;5.80;3.00;;;11.60;79.80;;;;;;4953190;29;20431;-75
2021/05/01 09:38:55;;;;;;;3.67;1.98;;;11.60;79.50;;;;;;4954241;28;20032;-75
2021/05/01 09:41:25;;;;;;;5.93;3.03;;;11.70;79.70;;;;;;4952230;28;20510;-75
2021/05/01 09:44:25;;;;;;;7.28;2.95;;;11.60;79.50;;;;;;4954247;28;20158;-75
2021/05/01 09:46:53;;;;;;;6.32;2.80;;;11.60;79.90;;;;;;4949802;29;20344;-75
2021/05/01 09:49:33;;;;;;;7.90;2.85;;;11.50;80.20;;;;;;4953641;28;20019;-75
2021/05/01 09:52:01;;;;;;;4.05;2.33;;;11.50;80.70;;;;;;4952884;29;20476;-74
2021/05/01 09:54:29;;;;;;;4.90;3.03;;;11.40;80.70;;;;;;4952821;28;20019;-74
2021/05/01 09:56:57;;;;;;;4.28;2.80;;;11.40;80.40;;;;;;4952769;29;20031;-74
2021/05/01 09:59:54;;;;;;;5.78;2.80;;;11.40;80.60;;;;;;4953712;28;20115;-76
2021/05/01 10:02:33;;;;;;;5.50;2.25;;;11.30;80.50;;;;;;4952082;29;20098;-76
2021/05/01 10:04:59;;;;;;;5.43;2.22;;;11.40;80.80;;;;;;4952812;29;20054;-76
2021/05/01 10:07:26;;;;;;;5.07;2.50;;;11.30;79.90;;;;;;4952970;28;20362;-75
2021/05/01 10:09:56;;;;;;;5.07;2.70;;;11.30;79.20;;;;;;4953562;28;20085;-75
2021/05/01 10:12:23;;;;;;;5.93;2.85;;;11.40;79.10;;;;;;4951886;29;20460;-75
2021/05/01 10:14:53;;;;;;;6.75;2.88;;;11.50;78.90;;;;;;4953937;28;20086;-75
2021/05/01 10:17:22;;;;;;;5.25;2.42;;;11.70;78.00;;;;;;4953727;28;20110;-74
2021/05/01 10:20:03;;;;;;;7.20;2.80;;;11.90;75.80;;;;;;4953770;28;20042;-75
2021/05/01 10:22:35;;;;;;;4.05;2.20;;;12.10;75.50;;;;;;4953269;28;20027;-75
2021/05/01 10:25:08;;;;;;;4.38;2.28;;;12.10;75.50;;;;;;4952368;28;20222;-75
2021/05/01 10:27:53;;;;;;;3.95;2.03;;;12.10;74.30;;;;;;4951821;28;20035;-75
2021/05/01 10:33:39;;;;;;;3.15;1.80;;;11.90;73.40;;;;;;4953640;28;20043;-76
2021/05/01 10:36:20;;;;;;;4.30;1.83;;;11.90;73.90;;;;;;4952298;28;20498;-75
2021/05/01 10:39:05;;;;;;;2.72;1.88;;;11.80;73.00;;;;;;4952935;28;20037;-75
2021/05/01 10:41:31;;;;;;;4.32;2.17;;;11.70;72.40;;;;;;4951715;29;20047;-74
2021/05/01 10:43:59;;;;;;;4.80;2.47;;;11.70;71.70;;;;;;4952213;28;20020;-75
2021/05/01 10:46:30;;;;;;;4.07;1.80;;;11.70;71.40;;;;;;4952909;28;20067;-74
2021/05/01 10:49:03;;;;;;;4.72;2.10;;;11.60;71.20;;;;;;4953944;28;20035;-76
2021/05/01 10:51:41;;;;;;;2.95;1.80;;;11.60;71.40;;;;;;4951920;28;20024;-76
2021/05/01 10:54:17;;;;;;;3.38;1.80;;;11.60;71.60;;;;;;4934671;29;20027;-73
2021/05/01 10:56:46;;;;;;;3.80;2.13;;;11.70;71.90;;;;;;4933802;29;20055;-74
2021/05/01 10:59:20;;;;;;;5.10;2.40;;;11.70;71.80;;;;;;4948286;29;20034;-75
2021/05/01 11:01:47;;;;;;;3.92;1.73;;;11.80;72.20;;;;;;4951184;28;20059;-76
2021/05/01 11:04:23;;;;;;;3.72;1.90;;;11.80;72.00;;;;;;4953760;28;20023;-76
2021/05/01 11:07:13;;;;;;;5.55;2.22;;;11.90;72.00;;;;;;4953533;29;20027;-76
2021/05/01 11:09:46;;;;;;;4.68;1.88;;;12.00;71.40;;;;;;4956238;28;20023;-75
2021/05/01 11:12:17;;;;;;;4.15;2.15;;;12.00;70.80;;;;;;4956033;29;20396;-73
2021/05/01 11:14:59;;;;;;;3.20;1.83;;;12.00;70.30;;;;;;4954321;29;20066;-76
2021/05/01 11:17:31;;;;;;;2.78;1.63;;;12.10;69.50;;;;;;4956504;28;20778;-76
2021/05/01 11:20:12;;;;;;;3.47;1.88;;;12.20;68.80;;;;;;4957137;29;20043;-75
2021/05/01 11:22:40;;;;;;;3.60;1.95;;;12.30;68.10;;;;;;4956254;28;20066;-75
2021/05/01 11:25:09;;;;;;;3.65;2.17;;;12.40;67.90;;;;;;4956645;28;20019;-75
2021/05/01 11:27:35;;;;;;;4.88;1.98;;;12.60;67.20;;;;;;4954597;29;20034;-76
2021/05/01 11:30:01;;;;;;;4.80;2.35;;;12.70;66.70;;;;;;4955326;28;20027;-75
2021/05/01 11:32:27;;;;;;;3.28;1.55;;;12.90;66.80;;;;;;4954960;29;20488;-76
2021/05/01 11:35:05;;;;;;;3.10;1.60;;;13.00;66.80;;;;;;4956510;28;20023;-76
2021/05/01 11:37:38;;;;;;;5.55;2.08;;;13.10;66.00;;;;;;4954409;29;20027;-75
2021/05/01 11:40:05;;;;;;;3.17;1.80;;;13.10;65.80;;;;;;4955038;29;20483;-75
2021/05/01 11:42:32;;;;;;;3.35;1.98;;;13.00;64.50;;;;;;4954196;29;20531;-75
2021/05/01 11:44:57;;;;;;;5.05;2.00;;;12.90;63.80;;;;;;4956589;28;20063;-74
2021/05/01 11:47:27;;;;;;;3.30;2.33;;;12.80;64.10;;;;;;4954945;29;20058;-76
2021/05/01 11:49:56;;;;;;;4.32;1.83;;;12.80;63.40;;;;;;4956101;28;20478;-76
2021/05/01 11:52:43;;;;;;;3.15;1.60;;;12.60;62.90;;;;;;4956181;28;20464;-75
2021/05/01 11:55:18;;;;;;;6.30;2.55;;;12.60;63.40;;;;;;4954200;29;20031;-75
2021/05/01 11:57:48;;;;;;;4.82;1.80;;;12.50;62.40;;;;;;4953592;29;20120;-76
2021/05/01 12:00:26;;;;;;;3.50;1.88;;;12.50;63.10;;;;;;4955964;28;20555;-73
2021/05/01 12:02:53;;;;;;;3.60;2.00;;;12.50;62.90;;;;;;4955380;29;20035;-76
2021/05/01 12:05:21;;;;;;;4.93;2.50;;;12.40;62.50;;;;;;4954438;28;20020;-75
2021/05/01 12:08:00;;;;;;;2.60;1.67;;;12.40;62.40;;;;;;4953444;29;20027;-76
2021/05/01 12:10:26;;;;;;;4.43;1.52;;;12.40;63.20;;;;;;4955099;28;20079;-77
2021/05/01 12:13:05;;;;;;;2.97;1.50;;;12.40;62.90;;;;;;4954923;28;20058;-76
2021/05/01 12:15:34;;;;;;;3.38;1.48;;;12.50;62.70;;;;;;4954953;28;20034;-76
2021/05/01 12:18:01;;;;;;;2.22;1.33;;;12.70;62.70;;;;;;4955181;28;20392;-75
2021/05/01 12:20:29;;;;;;;1.77;0.98;;;12.80;62.60;;;;;;4955557;28;20026;-75
2021/05/01 12:23:24;;;;;;;2.55;1.42;;;13.00;61.00;;;;;;4953805;29;20031;-76
2021/05/01 12:25:53;;;;;;;3.15;1.60;;;13.10;61.20;;;;;;4945111;29;20039;-75
2021/05/01 12:28:44;;;;;;;1.73;1.23;;;13.30;61.40;;;;;;4955242;28;20468;-74
2021/05/01 12:31:10;;;;;;;3.13;1.48;;;13.40;61.90;;;;;;4953090;28;20031;-75
2021/05/01 12:33:36;;;;;;;1.27;1.13;;;13.50;61.90;;;;;;4955262;28;20024;-75
2021/05/01 12:36:08;;;;;;;4.00;1.60;;;13.50;62.20;;;;;;4954076;29;20047;-75
2021/05/01 12:38:36;;;;;;;2.33;1.25;;;13.60;62.60;;;;;;4954780;28;20079;-75
2021/05/01 12:41:08;;;;;;;3.63;1.40;;;13.70;63.10;;;;;;4954729;29;20030;-75
2021/05/01 12:43:34;;;;;;;4.00;1.40;;;13.70;62.90;;;;;;4953340;29;20431;-75
2021/05/01 12:46:13;;;;;;;3.67;1.60;;;13.60;62.90;;;;;;4955323;28;20027;-75
2021/05/01 12:48:51;;;;;;;2.60;1.50;;;13.50;62.70;;;;;;4954472;28;20027;-75
2021/05/01 12:51:25;;;;;;;1.75;1.33;;;13.40;62.50;;;;;;4955359;28;20031;-75
2021/05/01 12:53:52;;;;;;;3.28;1.88;;;13.30;61.90;;;;;;4953219;29;20027;-76
2021/05/01 12:56:31;;;;;;;2.92;1.33;;;13.10;62.40;;;;;;4954314;28;20384;-75